sensor_id;sensor_type;location;lat;lon;timestamp;temperature;humidity
18444;DHT22;9350;53.176;8.194;2023-04-08T00:01:11;7.20;99.90
18444;DHT22;9350;53.176;8.194;2023-04-08T00:03:38;7.10;99.90
18444;DHT22;9350;53.176;8.194;2023-04-08T00:06:05;7.10;99.90
18444;DHT22;9350;53.176;8.194;2023-04-08T00:08:32;7.10;99.90
18444;DHT22;9350;53.176;8.194;2023-04-08T00:11:00;7.10;99.90
18444;DHT22;9350;53.176;8.194;2023-04-08T00:13:27;7.30;99.90
18444;DHT22;9350;53.176;8.194;2023-04-08T00:15:54;7.30;99.90
18444;DHT22;9350;53.176;8.194;2023-04-08T00:18:21;7.30;99.90
18444;DHT22;9350;53.176;8.194;2023-04-08T00:20:47;7.40;99.90
18444;DHT22;9350;53.176;8.194;2023-04-08T00:23:15;7.40;99.90
18444;DHT22;9350;53.176;8.194;2023-04-08T00:25:41;7.40;99.90
18444;DHT22;9350;53.176;8.194;2023-04-08T00:28:10;7.50;99.90
18444;DHT22;9350;53.176;8.194;2023-04-08T00:30:37;7.50;99.90
18444;DHT22;9350;53.176;8.194;2023-04-08T00:33:03;7.60;99.90
18444;DHT22;9350;53.176;8.194;2023-04-08T00:35:30;7.70;99.90
18444;DHT22;9350;53.176;8.194;2023-04-08T00:37:57;7.60;99.90
18444;DHT22;9350;53.176;8.194;2023-04-08T00:40:23;7.60;99.90
18444;DHT22;9350;53.176;8.194;2023-04-08T00:42:50;7.70;99.90
18444;DHT22;9350;53.176;8.194;2023-04-08T00:45:18;7.70;99.90
18444;DHT22;9350;53.176;8.194;2023-04-08T00:47:45;7.70;99.90
18444;DHT22;9350;53.176;8.194;2023-04-08T00:50:17;7.70;99.90
18444;DHT22;9350;53.176;8.194;2023-04-08T00:52:43;7.80;99.90
18444;DHT22;9350;53.176;8.194;2023-04-08T00:55:10;7.80;99.90
18444;DHT22;9350;53.176;8.194;2023-04-08T00:57:37;7.70;99.90
18444;DHT22;9350;53.176;8.194;2023-04-08T01:00:05;7.80;99.90
18444;DHT22;9350;53.176;8.194;2023-04-08T01:02:38;7.80;99.90
18444;DHT22;9350;53.176;8.194;2023-04-08T01:05:12;7.80;99.90
18444;DHT22;9350;53.176;8.194;2023-04-08T01:07:44;7.80;99.90
18444;DHT22;9350;53.176;8.194;2023-04-08T01:10:15;7.80;99.90
18444;DHT22;9350;53.176;8.194;2023-04-08T01:12:48;7.80;99.90
18444;DHT22;9350;53.176;8.194;2023-04-08T01:15:16;7.80;99.90
18444;DHT22;9350;53.176;8.194;2023-04-08T01:17:45;7.80;99.90
18444;DHT22;9350;53.176;8.194;2023-04-08T01:20:13;7.80;99.90
18444;DHT22;9350;53.176;8.194;2023-04-08T01:22:50;7.80;99.90
18444;DHT22;9350;53.176;8.194;2023-04-08T01:25:26;7.70;99.90
18444;DHT22;9350;53.176;8.194;2023-04-08T01:27:57;7.80;99.90
18444;DHT22;9350;53.176;8.194;2023-04-08T01:30:26;7.70;99.90
18444;DHT22;9350;53.176;8.194;2023-04-08T01:32:55;7.60;99.90
18444;DHT22;9350;53.176;8.194;2023-04-08T01:35:22;7.70;99.90
18444;DHT22;9350;53.176;8.194;2023-04-08T01:37:50;7.60;99.90
18444;DHT22;9350;53.176;8.194;2023-04-08T01:40:18;7.70;99.90
18444;DHT22;9350;53.176;8.194;2023-04-08T01:42:46;7.70;99.90
18444;DHT22;9350;53.176;8.194;2023-04-08T01:45:15;7.70;99.90
18444;DHT22;9350;53.176;8.194;2023-04-08T01:47:44;7.70;99.90
18444;DHT22;9350;53.176;8.194;2023-04-08T01:50:12;7.70;99.90
18444;DHT22;9350;53.176;8.194;2023-04-08T01:52:40;7.70;99.90
18444;DHT22;9350;53.176;8.194;2023-04-08T01:55:09;7.70;99.90
18444;DHT22;9350;53.176;8.194;2023-04-08T01:57:37;7.70;99.90
18444;DHT22;9350;53.176;8.194;2023-04-08T02:00:06;7.60;99.90
18444;DHT22;9350;53.176;8.194;2023-04-08T02:02:35;7.60;99.90
18444;DHT22;9350;53.176;8.194;2023-04-08T02:05:02;7.60;99.90
18444;DHT22;9350;53.176;8.194;2023-04-08T02:07:29;7.60;99.90
18444;DHT22;9350;53.176;8.194;2023-04-08T02:09:56;7.50;99.90
18444;DHT22;9350;53.176;8.194;2023-04-08T02:12:24;7.60;99.90
18444;DHT22;9350;53.176;8.194;2023-04-08T02:14:51;7.70;99.90
18444;DHT22;9350;53.176;8.194;2023-04-08T02:17:22;7.60;99.90
18444;DHT22;9350;53.176;8.194;2023-04-08T02:19:58;7.60;99.90
18444;DHT22;9350;53.176;8.194;2023-04-08T02:22:32;7.60;99.90
18444;DHT22;9350;53.176;8.194;2023-04-08T02:25:05;7.60;99.90
18444;DHT22;9350;53.176;8.194;2023-04-08T02:27:34;7.60;99.90
18444;DHT22;9350;53.176;8.194;2023-04-08T02:30:02;7.60;99.90
18444;DHT22;9350;53.176;8.194;2023-04-08T02:32:32;7.80;99.90
18444;DHT22;9350;53.176;8.194;2023-04-08T02:35:01;7.70;99.90
18444;DHT22;9350;53.176;8.194;2023-04-08T02:37:28;7.70;99.90
18444;DHT22;9350;53.176;8.194;2023-04-08T02:39:55;7.70;99.90
18444;DHT22;9350;53.176;8.194;2023-04-08T02:42:22;7.70;99.90
18444;DHT22;9350;53.176;8.194;2023-04-08T02:44:49;7.60;99.90
18444;DHT22;9350;53.176;8.194;2023-04-08T02:47:16;7.70;99.90
18444;DHT22;9350;53.176;8.194;2023-04-08T02:49:43;7.60;99.90
18444;DHT22;9350;53.176;8.194;2023-04-08T02:52:11;7.50;99.90
18444;DHT22;9350;53.176;8.194;2023-04-08T02:54:38;7.50;99.90
18444;DHT22;9350;53.176;8.194;2023-04-08T02:57:05;7.50;99.90
18444;DHT22;9350;53.176;8.194;2023-04-08T02:59:31;7.60;99.90
18444;DHT22;9350;53.176;8.194;2023-04-08T03:01:58;7.60;99.90
18444;DHT22;9350;53.176;8.194;2023-04-08T03:04:26;7.60;99.90
18444;DHT22;9350;53.176;8.194;2023-04-08T03:06:53;7.60;99.90
18444;DHT22;9350;53.176;8.194;2023-04-08T03:09:21;7.60;99.90
18444;DHT22;9350;53.176;8.194;2023-04-08T03:11:47;7.50;99.90
18444;DHT22;9350;53.176;8.194;2023-04-08T03:14:17;7.60;99.90
18444;DHT22;9350;53.176;8.194;2023-04-08T03:16:44;7.60;99.90
18444;DHT22;9350;53.176;8.194;2023-04-08T03:19:10;7.50;99.90
18444;DHT22;9350;53.176;8.194;2023-04-08T03:21:37;7.60;99.90
18444;DHT22;9350;53.176;8.194;2023-04-08T03:24:04;7.50;99.90
18444;DHT22;9350;53.176;8.194;2023-04-08T03:26:32;7.50;99.90
18444;DHT22;9350;53.176;8.194;2023-04-08T03:28:59;7.60;99.90
18444;DHT22;9350;53.176;8.194;2023-04-08T03:31:26;7.60;99.90
18444;DHT22;9350;53.176;8.194;2023-04-08T03:33:52;7.50;99.90
18444;DHT22;9350;53.176;8.194;2023-04-08T03:36:19;7.60;99.90
18444;DHT22;9350;53.176;8.194;2023-04-08T03:38:46;7.60;99.90
18444;DHT22;9350;53.176;8.194;2023-04-08T03:41:12;7.60;99.90
18444;DHT22;9350;53.176;8.194;2023-04-08T03:43:40;7.60;99.90
18444;DHT22;9350;53.176;8.194;2023-04-08T03:46:07;7.50;99.90
18444;DHT22;9350;53.176;8.194;2023-04-08T03:48:34;7.60;99.90
18444;DHT22;9350;53.176;8.194;2023-04-08T03:51:00;7.60;99.90
18444;DHT22;9350;53.176;8.194;2023-04-08T03:53:27;7.70;99.90
18444;DHT22;9350;53.176;8.194;2023-04-08T03:55:54;7.70;99.90
18444;DHT22;9350;53.176;8.194;2023-04-08T03:58:21;7.60;99.90
18444;DHT22;9350;53.176;8.194;2023-04-08T04:00:49;7.50;99.90
18444;DHT22;9350;53.176;8.194;2023-04-08T04:03:16;7.60;99.90
18444;DHT22;9350;53.176;8.194;2023-04-08T04:05:43;7.50;99.90
18444;DHT22;9350;53.176;8.194;2023-04-08T04:08:10;7.50;99.90
18444;DHT22;9350;53.176;8.194;2023-04-08T04:10:36;7.50;99.90
18444;DHT22;9350;53.176;8.194;2023-04-08T04:13:03;7.50;99.90
18444;DHT22;9350;53.176;8.194;2023-04-08T04:15:30;7.50;99.90
18444;DHT22;9350;53.176;8.194;2023-04-08T04:17:58;7.60;99.90
18444;DHT22;9350;53.176;8.194;2023-04-08T04:20:25;7.50;99.90
18444;DHT22;9350;53.176;8.194;2023-04-08T04:22:53;7.60;99.90
18444;DHT22;9350;53.176;8.194;2023-04-08T04:25:20;7.50;99.90
18444;DHT22;9350;53.176;8.194;2023-04-08T04:27:47;7.50;99.90
18444;DHT22;9350;53.176;8.194;2023-04-08T04:30:13;7.50;99.90
18444;DHT22;9350;53.176;8.194;2023-04-08T04:32:40;7.50;99.90
18444;DHT22;9350;53.176;8.194;2023-04-08T04:35:09;7.50;99.90
18444;DHT22;9350;53.176;8.194;2023-04-08T04:37:36;7.50;99.90
18444;DHT22;9350;53.176;8.194;2023-04-08T04:40:03;7.60;99.90
18444;DHT22;9350;53.176;8.194;2023-04-08T04:42:30;7.50;99.90
18444;DHT22;9350;53.176;8.194;2023-04-08T04:44:57;7.40;99.90
18444;DHT22;9350;53.176;8.194;2023-04-08T04:47:24;7.40;99.90
18444;DHT22;9350;53.176;8.194;2023-04-08T04:49:51;7.50;99.90
18444;DHT22;9350;53.176;8.194;2023-04-08T04:52:19;7.50;99.90
18444;DHT22;9350;53.176;8.194;2023-04-08T04:54:46;7.60;99.90
18444;DHT22;9350;53.176;8.194;2023-04-08T04:57:12;7.50;99.90
18444;DHT22;9350;53.176;8.194;2023-04-08T04:59:39;7.60;99.90
18444;DHT22;9350;53.176;8.194;2023-04-08T05:02:06;7.60;99.90
18444;DHT22;9350;53.176;8.194;2023-04-08T05:04:33;7.60;99.90
18444;DHT22;9350;53.176;8.194;2023-04-08T05:06:59;7.50;99.90
18444;DHT22;9350;53.176;8.194;2023-04-08T05:09:28;7.60;99.90
18444;DHT22;9350;53.176;8.194;2023-04-08T05:11:55;7.50;99.90
18444;DHT22;9350;53.176;8.194;2023-04-08T05:14:21;7.40;99.90
18444;DHT22;9350;53.176;8.194;2023-04-08T05:16:48;7.40;99.90
18444;DHT22;9350;53.176;8.194;2023-04-08T05:19:15;7.50;99.90
18444;DHT22;9350;53.176;8.194;2023-04-08T05:21:42;7.40;99.90
18444;DHT22;9350;53.176;8.194;2023-04-08T05:24:09;7.40;99.90
18444;DHT22;9350;53.176;8.194;2023-04-08T05:26:37;7.40;99.90
18444;DHT22;9350;53.176;8.194;2023-04-08T05:29:04;7.40;99.90
18444;DHT22;9350;53.176;8.194;2023-04-08T05:31:31;7.40;99.90
18444;DHT22;9350;53.176;8.194;2023-04-08T05:33:57;7.40;99.90
18444;DHT22;9350;53.176;8.194;2023-04-08T05:36:24;7.40;99.90
18444;DHT22;9350;53.176;8.194;2023-04-08T05:38:51;7.40;99.90
18444;DHT22;9350;53.176;8.194;2023-04-08T05:41:18;7.40;99.90
18444;DHT22;9350;53.176;8.194;2023-04-08T05:43:47;7.50;99.90
18444;DHT22;9350;53.176;8.194;2023-04-08T05:46:13;7.50;99.90
18444;DHT22;9350;53.176;8.194;2023-04-08T05:48:40;7.50;99.90
18444;DHT22;9350;53.176;8.194;2023-04-08T05:51:12;7.50;99.90
18444;DHT22;9350;53.176;8.194;2023-04-08T05:53:39;7.50;99.90
18444;DHT22;9350;53.176;8.194;2023-04-08T05:56:06;7.50;99.90
18444;DHT22;9350;53.176;8.194;2023-04-08T05:58:33;7.50;99.90
18444;DHT22;9350;53.176;8.194;2023-04-08T06:01:01;7.50;99.90
18444;DHT22;9350;53.176;8.194;2023-04-08T06:03:30;7.60;99.90
18444;DHT22;9350;53.176;8.194;2023-04-08T06:05:57;7.50;99.90
18444;DHT22;9350;53.176;8.194;2023-04-08T06:08:24;7.50;99.90
18444;DHT22;9350;53.176;8.194;2023-04-08T06:10:51;7.60;99.90
18444;DHT22;9350;53.176;8.194;2023-04-08T06:13:18;7.50;99.90
18444;DHT22;9350;53.176;8.194;2023-04-08T06:15:46;7.60;99.90
18444;DHT22;9350;53.176;8.194;2023-04-08T06:18:15;7.50;99.90
18444;DHT22;9350;53.176;8.194;2023-04-08T06:20:42;7.50;99.90
18444;DHT22;9350;53.176;8.194;2023-04-08T06:23:09;7.60;99.90
18444;DHT22;9350;53.176;8.194;2023-04-08T06:25:36;7.50;99.90
18444;DHT22;9350;53.176;8.194;2023-04-08T06:28:03;7.50;99.90
18444;DHT22;9350;53.176;8.194;2023-04-08T06:30:29;7.50;99.90
18444;DHT22;9350;53.176;8.194;2023-04-08T06:32:56;7.60;99.90
18444;DHT22;9350;53.176;8.194;2023-04-08T06:35:24;7.70;99.90
18444;DHT22;9350;53.176;8.194;2023-04-08T06:37:51;7.70;99.90
18444;DHT22;9350;53.176;8.194;2023-04-08T06:40:18;7.60;99.90
18444;DHT22;9350;53.176;8.194;2023-04-08T06:42:45;7.70;99.90
18444;DHT22;9350;53.176;8.194;2023-04-08T06:45:13;7.70;99.90
18444;DHT22;9350;53.176;8.194;2023-04-08T06:47:43;7.80;99.90
18444;DHT22;9350;53.176;8.194;2023-04-08T06:50:10;7.80;99.90
18444;DHT22;9350;53.176;8.194;2023-04-08T06:52:38;7.80;99.90
18444;DHT22;9350;53.176;8.194;2023-04-08T06:55:08;7.80;99.90
18444;DHT22;9350;53.176;8.194;2023-04-08T06:57:35;7.80;99.90
18444;DHT22;9350;53.176;8.194;2023-04-08T07:00:02;7.80;99.90
18444;DHT22;9350;53.176;8.194;2023-04-08T07:02:29;7.90;99.90
18444;DHT22;9350;53.176;8.194;2023-04-08T07:04:56;7.90;99.90
18444;DHT22;9350;53.176;8.194;2023-04-08T07:07:22;7.90;99.90
18444;DHT22;9350;53.176;8.194;2023-04-08T07:09:50;7.90;99.90
18444;DHT22;9350;53.176;8.194;2023-04-08T07:12:17;7.90;99.90
18444;DHT22;9350;53.176;8.194;2023-04-08T07:14:44;8.00;99.90
18444;DHT22;9350;53.176;8.194;2023-04-08T07:17:11;8.10;99.90
18444;DHT22;9350;53.176;8.194;2023-04-08T07:19:37;8.10;99.90
18444;DHT22;9350;53.176;8.194;2023-04-08T07:22:04;8.20;99.90
18444;DHT22;9350;53.176;8.194;2023-04-08T07:24:31;8.20;99.90
18444;DHT22;9350;53.176;8.194;2023-04-08T07:27:00;8.20;99.90
18444;DHT22;9350;53.176;8.194;2023-04-08T07:29:26;8.30;99.90
18444;DHT22;9350;53.176;8.194;2023-04-08T07:31:53;8.20;99.90
18444;DHT22;9350;53.176;8.194;2023-04-08T07:34:20;8.20;99.90
18444;DHT22;9350;53.176;8.194;2023-04-08T07:36:47;8.30;99.90
18444;DHT22;9350;53.176;8.194;2023-04-08T07:39:13;8.20;99.90
18444;DHT22;9350;53.176;8.194;2023-04-08T07:41:40;8.20;99.90
18444;DHT22;9350;53.176;8.194;2023-04-08T07:44:08;8.20;99.90
18444;DHT22;9350;53.176;8.194;2023-04-08T07:46:36;8.20;99.90
18444;DHT22;9350;53.176;8.194;2023-04-08T07:49:03;8.10;99.90
18444;DHT22;9350;53.176;8.194;2023-04-08T07:51:30;8.20;99.90
18444;DHT22;9350;53.176;8.194;2023-04-08T07:53:56;8.20;99.90
18444;DHT22;9350;53.176;8.194;2023-04-08T07:56:23;8.10;99.90
18444;DHT22;9350;53.176;8.194;2023-04-08T07:58:50;8.20;99.90
18444;DHT22;9350;53.176;8.194;2023-04-08T08:01:21;8.20;99.90
18444;DHT22;9350;53.176;8.194;2023-04-08T08:03:48;8.30;99.90
18444;DHT22;9350;53.176;8.194;2023-04-08T08:06:15;8.20;99.90
18444;DHT22;9350;53.176;8.194;2023-04-08T08:08:42;8.20;99.90
18444;DHT22;9350;53.176;8.194;2023-04-08T08:11:09;8.20;99.90
18444;DHT22;9350;53.176;8.194;2023-04-08T08:13:35;8.30;99.90
18444;DHT22;9350;53.176;8.194;2023-04-08T08:16:02;8.30;99.90
18444;DHT22;9350;53.176;8.194;2023-04-08T08:18:34;8.20;99.90
18444;DHT22;9350;53.176;8.194;2023-04-08T08:21:01;8.10;99.90
18444;DHT22;9350;53.176;8.194;2023-04-08T08:23:28;8.20;99.90
18444;DHT22;9350;53.176;8.194;2023-04-08T08:25:58;8.20;99.90
18444;DHT22;9350;53.176;8.194;2023-04-08T08:28:26;8.30;99.90
18444;DHT22;9350;53.176;8.194;2023-04-08T08:30:52;8.30;99.90
18444;DHT22;9350;53.176;8.194;2023-04-08T08:33:19;8.20;99.90
18444;DHT22;9350;53.176;8.194;2023-04-08T08:35:47;8.20;99.90
18444;DHT22;9350;53.176;8.194;2023-04-08T08:38:14;8.30;99.90
18444;DHT22;9350;53.176;8.194;2023-04-08T08:40:42;8.30;99.90
18444;DHT22;9350;53.176;8.194;2023-04-08T08:43:09;8.30;99.90
18444;DHT22;9350;53.176;8.194;2023-04-08T08:45:38;8.30;99.90
18444;DHT22;9350;53.176;8.194;2023-04-08T08:48:05;8.30;99.90
18444;DHT22;9350;53.176;8.194;2023-04-08T08:50:33;8.30;99.90
18444;DHT22;9350;53.176;8.194;2023-04-08T08:53:01;8.40;99.90
18444;DHT22;9350;53.176;8.194;2023-04-08T08:55:30;8.40;99.90
18444;DHT22;9350;53.176;8.194;2023-04-08T08:57:58;8.40;99.90
18444;DHT22;9350;53.176;8.194;2023-04-08T09:00:35;8.40;99.90
18444;DHT22;9350;53.176;8.194;2023-04-08T09:03:14;8.40;99.90
18444;DHT22;9350;53.176;8.194;2023-04-08T09:05:49;8.40;99.90
18444;DHT22;9350;53.176;8.194;2023-04-08T09:08:28;8.50;99.90
18444;DHT22;9350;53.176;8.194;2023-04-08T09:10:56;8.50;99.90
18444;DHT22;9350;53.176;8.194;2023-04-08T09:13:35;8.40;99.90
18444;DHT22;9350;53.176;8.194;2023-04-08T09:16:03;8.50;99.90
18444;DHT22;9350;53.176;8.194;2023-04-08T09:18:31;8.50;99.90
18444;DHT22;9350;53.176;8.194;2023-04-08T09:20:59;8.50;99.90
18444;DHT22;9350;53.176;8.194;2023-04-08T09:23:38;8.50;99.90
18444;DHT22;9350;53.176;8.194;2023-04-08T09:26:09;8.60;99.90
18444;DHT22;9350;53.176;8.194;2023-04-08T09:28:36;8.60;99.90
18444;DHT22;9350;53.176;8.194;2023-04-08T09:31:19;8.60;99.90
18444;DHT22;9350;53.176;8.194;2023-04-08T09:33:47;8.60;99.90
18444;DHT22;9350;53.176;8.194;2023-04-08T09:36:14;8.60;99.90
18444;DHT22;9350;53.176;8.194;2023-04-08T09:38:43;8.60;99.90
18444;DHT22;9350;53.176;8.194;2023-04-08T09:41:12;8.70;99.90
18444;DHT22;9350;53.176;8.194;2023-04-08T09:43:42;8.80;99.90
18444;DHT22;9350;53.176;8.194;2023-04-08T09:46:13;8.90;99.90
18444;DHT22;9350;53.176;8.194;2023-04-08T09:48:52;8.70;99.90
18444;DHT22;9350;53.176;8.194;2023-04-08T09:51:22;8.80;99.90
18444;DHT22;9350;53.176;8.194;2023-04-08T09:54:02;8.80;99.90
18444;DHT22;9350;53.176;8.194;2023-04-08T09:56:35;8.90;99.90
18444;DHT22;9350;53.176;8.194;2023-04-08T09:59:10;8.90;99.90
18444;DHT22;9350;53.176;8.194;2023-04-08T10:01:42;8.90;99.90
18444;DHT22;9350;53.176;8.194;2023-04-08T10:04:14;8.90;99.90
18444;DHT22;9350;53.176;8.194;2023-04-08T10:06:41;8.90;99.90
18444;DHT22;9350;53.176;8.194;2023-04-08T10:09:10;9.00;99.90
18444;DHT22;9350;53.176;8.194;2023-04-08T10:11:37;9.00;99.90
18444;DHT22;9350;53.176;8.194;2023-04-08T10:14:03;9.10;99.90
18444;DHT22;9350;53.176;8.194;2023-04-08T10:16:31;9.10;99.90
18444;DHT22;9350;53.176;8.194;2023-04-08T10:18:58;9.20;99.90
18444;DHT22;9350;53.176;8.194;2023-04-08T10:21:33;9.20;99.90
18444;DHT22;9350;53.176;8.194;2023-04-08T10:24:00;9.30;99.90
18444;DHT22;9350;53.176;8.194;2023-04-08T10:26:36;9.40;99.90
18444;DHT22;9350;53.176;8.194;2023-04-08T10:29:30;9.40;99.90
18444;DHT22;9350;53.176;8.194;2023-04-08T10:31:58;9.30;99.90
18444;DHT22;9350;53.176;8.194;2023-04-08T10:34:26;9.30;99.90
18444;DHT22;9350;53.176;8.194;2023-04-08T10:36:55;9.20;99.90
18444;DHT22;9350;53.176;8.194;2023-04-08T10:39:24;9.30;99.90
18444;DHT22;9350;53.176;8.194;2023-04-08T10:41:53;9.30;99.90
18444;DHT22;9350;53.176;8.194;2023-04-08T10:44:21;9.40;99.90
18444;DHT22;9350;53.176;8.194;2023-04-08T10:46:49;9.40;99.90
18444;DHT22;9350;53.176;8.194;2023-04-08T10:49:17;9.50;99.90
18444;DHT22;9350;53.176;8.194;2023-04-08T10:51:45;9.40;99.90
18444;DHT22;9350;53.176;8.194;2023-04-08T10:54:13;9.50;99.90
18444;DHT22;9350;53.176;8.194;2023-04-08T10:56:44;9.60;99.90
18444;DHT22;9350;53.176;8.194;2023-04-08T10:59:14;9.60;99.90
18444;DHT22;9350;53.176;8.194;2023-04-08T11:01:43;9.60;99.90
18444;DHT22;9350;53.176;8.194;2023-04-08T11:04:11;9.60;99.90
18444;DHT22;9350;53.176;8.194;2023-04-08T11:06:38;9.70;99.90
18444;DHT22;9350;53.176;8.194;2023-04-08T11:09:05;9.60;99.90
18444;DHT22;9350;53.176;8.194;2023-04-08T11:11:32;9.70;99.90
18444;DHT22;9350;53.176;8.194;2023-04-08T11:14:00;9.70;99.90
18444;DHT22;9350;53.176;8.194;2023-04-08T11:16:29;9.80;99.90
18444;DHT22;9350;53.176;8.194;2023-04-08T11:18:55;9.80;99.90
18444;DHT22;9350;53.176;8.194;2023-04-08T11:21:23;9.80;99.90
18444;DHT22;9350;53.176;8.194;2023-04-08T11:23:53;9.80;99.90
18444;DHT22;9350;53.176;8.194;2023-04-08T11:26:21;9.80;99.90
18444;DHT22;9350;53.176;8.194;2023-04-08T11:28:48;9.80;99.90
18444;DHT22;9350;53.176;8.194;2023-04-08T11:31:16;9.80;99.90
18444;DHT22;9350;53.176;8.194;2023-04-08T11:33:48;9.80;99.90
18444;DHT22;9350;53.176;8.194;2023-04-08T11:36:17;9.90;99.90
18444;DHT22;9350;53.176;8.194;2023-04-08T11:38:44;9.90;99.90
18444;DHT22;9350;53.176;8.194;2023-04-08T11:41:12;10.00;99.90
18444;DHT22;9350;53.176;8.194;2023-04-08T11:43:50;10.10;99.90
18444;DHT22;9350;53.176;8.194;2023-04-08T11:46:17;10.10;99.90
18444;DHT22;9350;53.176;8.194;2023-04-08T11:48:58;10.00;99.90
18444;DHT22;9350;53.176;8.194;2023-04-08T11:51:25;10.10;99.90
18444;DHT22;9350;53.176;8.194;2023-04-08T11:53:52;10.00;99.90
18444;DHT22;9350;53.176;8.194;2023-04-08T11:56:19;9.90;99.90
18444;DHT22;9350;53.176;8.194;2023-04-08T11:58:46;10.00;99.90
18444;DHT22;9350;53.176;8.194;2023-04-08T12:01:13;10.00;99.90
18444;DHT22;9350;53.176;8.194;2023-04-08T12:04:00;10.00;99.90
18444;DHT22;9350;53.176;8.194;2023-04-08T12:06:27;10.00;99.90
18444;DHT22;9350;53.176;8.194;2023-04-08T12:08:55;10.10;99.90
18444;DHT22;9350;53.176;8.194;2023-04-08T12:11:22;10.00;99.90
18444;DHT22;9350;53.176;8.194;2023-04-08T12:13:49;10.10;99.90
18444;DHT22;9350;53.176;8.194;2023-04-08T12:16:17;10.10;99.90
18444;DHT22;9350;53.176;8.194;2023-04-08T12:18:44;10.20;99.90
18444;DHT22;9350;53.176;8.194;2023-04-08T12:21:12;10.20;99.90
18444;DHT22;9350;53.176;8.194;2023-04-08T12:23:39;10.30;99.90
18444;DHT22;9350;53.176;8.194;2023-04-08T12:26:06;10.20;99.90
18444;DHT22;9350;53.176;8.194;2023-04-08T12:28:33;10.30;99.90
18444;DHT22;9350;53.176;8.194;2023-04-08T12:31:00;10.30;99.90
18444;DHT22;9350;53.176;8.194;2023-04-08T12:33:27;10.40;99.90
18444;DHT22;9350;53.176;8.194;2023-04-08T12:35:54;10.40;99.90
18444;DHT22;9350;53.176;8.194;2023-04-08T12:38:24;10.50;99.90
18444;DHT22;9350;53.176;8.194;2023-04-08T12:40:51;10.40;99.90
18444;DHT22;9350;53.176;8.194;2023-04-08T12:43:18;10.50;99.90
18444;DHT22;9350;53.176;8.194;2023-04-08T12:45:45;10.50;99.90
18444;DHT22;9350;53.176;8.194;2023-04-08T12:48:13;10.50;99.90
18444;DHT22;9350;53.176;8.194;2023-04-08T12:50:40;10.50;99.90
18444;DHT22;9350;53.176;8.194;2023-04-08T12:53:06;10.50;99.90
18444;DHT22;9350;53.176;8.194;2023-04-08T12:55:34;10.50;99.90
18444;DHT22;9350;53.176;8.194;2023-04-08T12:58:01;10.60;99.90
18444;DHT22;9350;53.176;8.194;2023-04-08T13:00:28;10.70;99.90
18444;DHT22;9350;53.176;8.194;2023-04-08T13:02:54;10.60;99.90
18444;DHT22;9350;53.176;8.194;2023-04-08T13:05:21;10.60;99.90
18444;DHT22;9350;53.176;8.194;2023-04-08T13:07:48;10.60;99.90
18444;DHT22;9350;53.176;8.194;2023-04-08T13:10:15;10.50;99.90
18444;DHT22;9350;53.176;8.194;2023-04-08T13:12:43;10.60;99.90
18444;DHT22;9350;53.176;8.194;2023-04-08T13:15:10;10.60;99.90
18444;DHT22;9350;53.176;8.194;2023-04-08T13:17:37;10.60;99.90
18444;DHT22;9350;53.176;8.194;2023-04-08T13:20:05;10.70;99.90
18444;DHT22;9350;53.176;8.194;2023-04-08T13:22:34;10.70;99.90
18444;DHT22;9350;53.176;8.194;2023-04-08T13:25:00;10.70;99.90
18444;DHT22;9350;53.176;8.194;2023-04-08T13:27:27;10.80;99.90
18444;DHT22;9350;53.176;8.194;2023-04-08T13:29:55;10.80;99.90
18444;DHT22;9350;53.176;8.194;2023-04-08T13:32:22;10.80;99.90
18444;DHT22;9350;53.176;8.194;2023-04-08T13:34:49;10.80;99.90
18444;DHT22;9350;53.176;8.194;2023-04-08T13:37:15;11.00;99.90
18444;DHT22;9350;53.176;8.194;2023-04-08T13:39:42;11.00;99.90
18444;DHT22;9350;53.176;8.194;2023-04-08T13:42:09;11.00;99.90
18444;DHT22;9350;53.176;8.194;2023-04-08T13:44:35;11.00;99.90
18444;DHT22;9350;53.176;8.194;2023-04-08T13:47:03;11.00;99.90
18444;DHT22;9350;53.176;8.194;2023-04-08T13:49:30;11.00;99.90
18444;DHT22;9350;53.176;8.194;2023-04-08T13:51:57;11.00;99.90
18444;DHT22;9350;53.176;8.194;2023-04-08T13:54:24;11.00;99.90
18444;DHT22;9350;53.176;8.194;2023-04-08T13:56:51;11.00;99.90
18444;DHT22;9350;53.176;8.194;2023-04-08T13:59:17;11.10;99.90
18444;DHT22;9350;53.176;8.194;2023-04-08T14:01:44;11.00;99.90
18444;DHT22;9350;53.176;8.194;2023-04-08T14:04:12;11.00;99.90
18444;DHT22;9350;53.176;8.194;2023-04-08T14:06:39;10.90;99.90
18444;DHT22;9350;53.176;8.194;2023-04-08T14:09:05;11.00;99.90
18444;DHT22;9350;53.176;8.194;2023-04-08T14:11:32;10.90;99.90
18444;DHT22;9350;53.176;8.194;2023-04-08T14:13:59;10.90;99.90
18444;DHT22;9350;53.176;8.194;2023-04-08T14:16:26;10.90;99.90
18444;DHT22;9350;53.176;8.194;2023-04-08T14:18:55;10.90;99.90
18444;DHT22;9350;53.176;8.194;2023-04-08T14:21:23;10.90;99.90
18444;DHT22;9350;53.176;8.194;2023-04-08T14:23:50;10.90;99.90
18444;DHT22;9350;53.176;8.194;2023-04-08T14:26:17;11.00;99.90
18444;DHT22;9350;53.176;8.194;2023-04-08T14:28:43;10.90;99.90
18444;DHT22;9350;53.176;8.194;2023-04-08T14:31:11;10.90;99.90
18444;DHT22;9350;53.176;8.194;2023-04-08T14:33:38;10.90;99.90
18444;DHT22;9350;53.176;8.194;2023-04-08T14:36:06;11.00;99.90
18444;DHT22;9350;53.176;8.194;2023-04-08T14:38:34;10.90;99.90
18444;DHT22;9350;53.176;8.194;2023-04-08T14:41:01;11.00;99.90
18444;DHT22;9350;53.176;8.194;2023-04-08T14:43:28;11.00;99.90
18444;DHT22;9350;53.176;8.194;2023-04-08T14:45:55;11.00;99.90
18444;DHT22;9350;53.176;8.194;2023-04-08T14:48:21;11.00;99.90
18444;DHT22;9350;53.176;8.194;2023-04-08T14:50:50;11.00;99.90
18444;DHT22;9350;53.176;8.194;2023-04-08T14:53:16;11.00;99.90
18444;DHT22;9350;53.176;8.194;2023-04-08T14:55:45;11.10;99.90
18444;DHT22;9350;53.176;8.194;2023-04-08T14:58:12;11.00;99.90
18444;DHT22;9350;53.176;8.194;2023-04-08T15:00:38;11.00;99.90
18444;DHT22;9350;53.176;8.194;2023-04-08T15:03:08;11.00;99.90
18444;DHT22;9350;53.176;8.194;2023-04-08T15:05:35;11.10;99.90
18444;DHT22;9350;53.176;8.194;2023-04-08T15:08:02;11.10;99.90
18444;DHT22;9350;53.176;8.194;2023-04-08T15:10:29;11.10;99.90
18444;DHT22;9350;53.176;8.194;2023-04-08T15:12:57;11.10;99.90
18444;DHT22;9350;53.176;8.194;2023-04-08T15:15:24;11.10;99.90
18444;DHT22;9350;53.176;8.194;2023-04-08T15:17:51;11.10;99.90
18444;DHT22;9350;53.176;8.194;2023-04-08T15:20:17;11.00;99.90
18444;DHT22;9350;53.176;8.194;2023-04-08T15:22:44;11.10;99.90
18444;DHT22;9350;53.176;8.194;2023-04-08T15:25:12;11.10;99.90
18444;DHT22;9350;53.176;8.194;2023-04-08T15:27:38;11.10;99.90
18444;DHT22;9350;53.176;8.194;2023-04-08T15:30:07;11.10;99.90
18444;DHT22;9350;53.176;8.194;2023-04-08T15:32:35;11.10;99.90
18444;DHT22;9350;53.176;8.194;2023-04-08T15:35:02;11.00;99.90
18444;DHT22;9350;53.176;8.194;2023-04-08T15:37:29;11.00;99.90
18444;DHT22;9350;53.176;8.194;2023-04-08T15:39:56;11.00;99.90
18444;DHT22;9350;53.176;8.194;2023-04-08T15:42:23;11.00;99.90
18444;DHT22;9350;53.176;8.194;2023-04-08T15:44:49;11.00;99.90
18444;DHT22;9350;53.176;8.194;2023-04-08T15:47:17;11.00;99.90
18444;DHT22;9350;53.176;8.194;2023-04-08T15:49:44;11.00;99.90
18444;DHT22;9350;53.176;8.194;2023-04-08T15:52:13;11.00;99.90
18444;DHT22;9350;53.176;8.194;2023-04-08T15:54:40;11.00;99.90
18444;DHT22;9350;53.176;8.194;2023-04-08T15:57:06;11.00;99.90
18444;DHT22;9350;53.176;8.194;2023-04-08T15:59:33;10.90;99.90
18444;DHT22;9350;53.176;8.194;2023-04-08T16:02:00;10.90;99.90